createdAt,value
2023-04-07T00:00:32.895Z,70.48
2023-04-07T00:03:02.632Z,70.11
2023-04-07T00:05:31.587Z,70.23
2023-04-07T00:07:59.762Z,70.64
2023-04-07T00:10:28.909Z,70.49
2023-04-07T00:12:57.198Z,69.83
2023-04-07T00:15:25.324Z,70.03
2023-04-07T00:17:57.542Z,70.12
2023-04-07T00:20:25.840Z,69.77
2023-04-07T00:22:53.752Z,69.55
2023-04-07T00:25:22.346Z,69.67
2023-04-07T00:27:50.706Z,69.75
2023-04-07T00:30:18.956Z,69.66
2023-04-07T00:32:47.657Z,69.88
2023-04-07T00:35:16.675Z,69.64
2023-04-07T00:37:45.025Z,69.06
2023-04-07T00:40:13.469Z,69.03
2023-04-07T00:42:42.102Z,69.47
2023-04-07T00:45:11.541Z,69.42
2023-04-07T00:47:39.645Z,69.08
2023-04-07T00:50:08.242Z,69.01
2023-04-07T00:52:36.256Z,69.22
2023-04-07T00:55:05.302Z,69.23
2023-04-07T00:57:33.898Z,68.91
2023-04-07T01:00:02.255Z,69.13
2023-04-07T01:02:41.254Z,69.48
2023-04-07T01:05:16.304Z,69.39
2023-04-07T01:08:03.515Z,69.02
2023-04-07T01:10:35.983Z,69.11
2023-04-07T01:13:29.884Z,69.10
2023-04-07T01:16:17.356Z,68.91
2023-04-07T01:18:51.601Z,69.16
2023-04-07T01:21:19.530Z,69.27
2023-04-07T01:24:21.761Z,68.92
2023-04-07T01:26:49.711Z,68.45
2023-04-07T01:29:41.943Z,68.56
2023-04-07T01:32:10.323Z,68.80
2023-04-07T01:34:38.613Z,68.70
2023-04-07T01:37:06.981Z,68.40
2023-04-07T01:39:36.265Z,68.37
2023-04-07T01:42:04.299Z,68.00
2023-04-07T01:44:32.729Z,66.40
2023-04-07T01:47:01.097Z,66.18
2023-04-07T01:49:31.679Z,66.57
2023-04-07T01:52:00.313Z,66.89
2023-04-07T01:54:28.377Z,66.70
2023-04-07T01:56:57.351Z,66.71
2023-04-07T01:59:25.801Z,66.41
2023-04-07T02:01:54.671Z,66.29
2023-04-07T02:04:28.688Z,65.81
2023-04-07T02:07:03.128Z,65.85
2023-04-07T02:09:38.936Z,65.87
2023-04-07T02:12:08.555Z,65.89
2023-04-07T02:14:38.812Z,65.83
2023-04-07T02:17:10.442Z,65.83
2023-04-07T02:19:42.000Z,65.93
2023-04-07T02:22:10.710Z,65.90
2023-04-07T02:24:43.881Z,65.56
2023-04-07T02:27:11.878Z,65.30
2023-04-07T02:29:39.893Z,65.73
2023-04-07T02:32:08.477Z,65.78
2023-04-07T02:34:36.871Z,65.32
2023-04-07T02:37:05.324Z,64.87
2023-04-07T02:39:35.456Z,65.35
2023-04-07T02:42:03.478Z,65.34
2023-04-07T02:44:33.846Z,65.36
2023-04-07T02:47:01.817Z,65.32
2023-04-07T02:49:30.563Z,65.36
2023-04-07T02:51:59.555Z,65.26
2023-04-07T02:54:28.015Z,65.53
2023-04-07T02:56:57.403Z,65.49
2023-04-07T02:59:27.439Z,65.57
2023-04-07T03:01:55.812Z,65.41
2023-04-07T03:04:25.195Z,65.53
2023-04-07T03:06:53.319Z,65.55
2023-04-07T03:09:25.759Z,65.34
2023-04-07T03:11:54.090Z,65.81
2023-04-07T03:14:22.170Z,65.84
2023-04-07T03:16:51.464Z,66.06
2023-04-07T03:19:22.452Z,66.03
2023-04-07T03:21:51.681Z,66.40
2023-04-07T03:24:21.761Z,66.54
2023-04-07T03:26:51.398Z,66.71
2023-04-07T03:29:24.477Z,66.82
2023-04-07T03:31:53.818Z,66.92
2023-04-07T03:34:26.517Z,67.40
2023-04-07T03:36:54.450Z,67.67
2023-04-07T03:39:23.070Z,67.42
2023-04-07T03:41:52.146Z,67.21
2023-04-07T03:44:20.643Z,67.47
2023-04-07T03:46:50.646Z,67.32
2023-04-07T03:49:19.227Z,67.16
2023-04-07T03:51:48.633Z,66.98
2023-04-07T03:54:17.452Z,67.18
2023-04-07T03:56:46.849Z,66.99
2023-04-07T03:59:23.056Z,67.30
2023-04-07T04:02:00.729Z,67.41
2023-04-07T04:04:29.747Z,67.43
2023-04-07T04:06:57.764Z,67.34
2023-04-07T04:09:47.160Z,67.34
2023-04-07T04:12:15.458Z,67.03
2023-04-07T04:14:53.237Z,66.99
2023-04-07T04:17:21.765Z,66.62
2023-04-07T04:19:50.027Z,66.73
2023-04-07T04:22:24.718Z,66.37
2023-04-07T04:24:55.627Z,66.53
2023-04-07T04:27:26.801Z,66.16
2023-04-07T04:30:02.247Z,66.53
2023-04-07T04:32:36.364Z,66.54
2023-04-07T04:35:06.560Z,66.32
2023-04-07T04:37:38.009Z,66.31
2023-04-07T04:40:11.888Z,66.49
2023-04-07T04:42:41.743Z,66.46
2023-04-07T04:45:11.355Z,66.19
2023-04-07T04:47:41.524Z,66.02
2023-04-07T04:50:10.738Z,66.07
2023-04-07T04:52:39.567Z,66.00
2023-04-07T04:55:09.129Z,65.62
2023-04-07T04:57:38.481Z,65.23
2023-04-07T05:00:08.849Z,65.67
2023-04-07T05:02:38.499Z,65.87
2023-04-07T05:05:07.978Z,65.84
2023-04-07T05:07:40.459Z,65.44
2023-04-07T05:10:09.969Z,65.17
2023-04-07T05:12:39.478Z,65.02
2023-04-07T05:15:08.913Z,64.64
2023-04-07T05:17:38.489Z,64.09
2023-04-07T05:20:09.627Z,63.82
2023-04-07T05:22:41.495Z,63.58
2023-04-07T05:25:10.892Z,63.83
2023-04-07T05:27:41.168Z,62.13
2023-04-07T05:30:14.081Z,61.25
2023-04-07T05:32:43.158Z,60.55
2023-04-07T05:35:24.509Z,60.67
2023-04-07T05:37:57.080Z,60.80
2023-04-07T05:42:32.839Z,62.37
2023-04-07T05:45:01.584Z,60.94
2023-04-07T05:47:31.009Z,59.13
2023-04-07T05:49:59.006Z,58.52
2023-04-07T05:52:27.560Z,58.39
2023-04-07T05:55:06.907Z,57.76
2023-04-07T05:57:37.048Z,57.71
2023-04-07T06:00:06.937Z,57.09
2023-04-07T06:02:46.228Z,56.49
2023-04-07T06:05:18.958Z,56.89
2023-04-07T06:07:48.666Z,57.18
2023-04-07T06:10:18.159Z,57.58
2023-04-07T06:12:47.947Z,58.20
2023-04-07T06:15:15.948Z,58.69
2023-04-07T06:17:45.872Z,58.61
2023-04-07T06:20:14.062Z,59.00
2023-04-07T06:22:42.044Z,59.09
2023-04-07T06:25:10.609Z,58.91
2023-04-07T06:27:39.819Z,58.34
2023-04-07T06:30:10.274Z,58.08
2023-04-07T06:32:38.881Z,57.54
2023-04-07T06:35:07.321Z,57.59
2023-04-07T06:37:40.590Z,57.51
2023-04-07T06:40:09.269Z,57.35
2023-04-07T06:42:38.010Z,56.54
2023-04-07T06:45:26.473Z,56.41
2023-04-07T06:47:54.626Z,56.36
2023-04-07T06:50:22.747Z,55.48
2023-04-07T06:52:50.723Z,55.38
2023-04-07T06:55:24.372Z,55.12
2023-04-07T06:57:52.541Z,55.82
2023-04-07T07:00:20.983Z,55.26
2023-04-07T07:03:08.691Z,54.00
2023-04-07T07:05:37.180Z,54.02
2023-04-07T07:08:05.735Z,53.40
2023-04-07T07:10:33.836Z,51.73
2023-04-07T07:13:02.208Z,51.78
2023-04-07T07:15:30.353Z,51.79
2023-04-07T07:17:58.410Z,51.67
2023-04-07T07:20:27.698Z,51.35
2023-04-07T07:22:56.625Z,51.00
2023-04-07T07:25:27.084Z,51.44
2023-04-07T07:27:55.183Z,50.89
2023-04-07T07:30:24.083Z,50.78
2023-04-07T07:32:54.963Z,50.85
2023-04-07T07:35:23.223Z,50.71
2023-04-07T07:37:52.289Z,50.67
2023-04-07T07:40:20.946Z,50.37
2023-04-07T07:42:51.096Z,50.23
2023-04-07T07:45:19.707Z,50.11
2023-04-07T07:47:47.936Z,49.02
2023-04-07T07:50:16.649Z,49.55
2023-04-07T07:52:44.770Z,49.66
2023-04-07T07:55:13.292Z,48.96
2023-04-07T07:57:41.952Z,48.81
2023-04-07T08:00:10.476Z,49.17
2023-04-07T08:02:41.738Z,48.52
2023-04-07T08:05:11.388Z,48.52
2023-04-07T08:07:39.546Z,48.22
2023-04-07T08:10:08.294Z,48.16
2023-04-07T08:12:42.772Z,47.08
2023-04-07T08:15:11.353Z,46.96
2023-04-07T08:17:39.711Z,46.98
2023-04-07T08:20:10.474Z,47.56
2023-04-07T08:22:38.542Z,47.43
2023-04-07T08:25:06.558Z,46.67
2023-04-07T08:27:35.946Z,46.43
2023-04-07T08:30:09.033Z,45.75
2023-04-07T08:32:46.313Z,45.91
2023-04-07T08:35:14.254Z,45.84
2023-04-07T08:37:44.300Z,45.67
2023-04-07T08:40:13.071Z,44.89
2023-04-07T08:42:42.462Z,44.15
2023-04-07T08:45:10.591Z,44.50
2023-04-07T08:47:38.918Z,44.96
2023-04-07T08:50:08.388Z,45.19
2023-04-07T08:52:52.751Z,44.89
2023-04-07T08:55:21.133Z,44.98
2023-04-07T08:57:49.687Z,45.05
2023-04-07T09:00:17.782Z,45.12
2023-04-07T09:02:49.516Z,45.33
2023-04-07T09:05:17.634Z,44.92
2023-04-07T09:07:45.804Z,44.73
2023-04-07T09:10:13.821Z,44.70
2023-04-07T09:12:43.172Z,44.55
2023-04-07T09:15:11.339Z,44.05
2023-04-07T09:17:45.852Z,43.69
2023-04-07T09:20:14.226Z,43.47
2023-04-07T09:22:43.540Z,43.54
2023-04-07T09:25:12.820Z,43.08
2023-04-07T09:27:41.217Z,43.15
2023-04-07T09:30:14.702Z,42.89
2023-04-07T09:32:43.377Z,42.24
2023-04-07T09:35:11.621Z,42.42
2023-04-07T09:37:39.796Z,41.71
2023-04-07T09:40:08.650Z,41.74
2023-04-07T09:42:48.280Z,41.58
2023-04-07T09:45:34.018Z,41.23
2023-04-07T09:48:19.243Z,41.29
2023-04-07T09:50:52.123Z,42.02
2023-04-07T09:53:20.544Z,41.84
2023-04-07T09:55:48.500Z,41.41
2023-04-07T09:58:17.010Z,40.08
2023-04-07T10:00:45.730Z,40.61
2023-04-07T10:03:14.977Z,40.78
2023-04-07T10:05:43.699Z,40.55
2023-04-07T10:08:12.257Z,40.33
2023-04-07T10:10:41.978Z,40.84
2023-04-07T10:13:10.692Z,40.48
2023-04-07T10:15:39.686Z,40.41
2023-04-07T10:18:07.924Z,40.57
2023-04-07T10:20:37.819Z,40.30
2023-04-07T10:23:20.620Z,40.19
2023-04-07T10:25:49.912Z,39.23
2023-04-07T10:28:18.856Z,39.42
2023-04-07T10:30:47.885Z,39.44
2023-04-07T10:33:49.620Z,39.73
2023-04-07T10:36:21.346Z,39.41
2023-04-07T10:39:07.365Z,39.05
2023-04-07T10:41:36.995Z,39.15
2023-04-07T10:44:06.153Z,38.92
2023-04-07T10:46:47.257Z,39.49
2023-04-07T10:49:18.562Z,38.42
2023-04-07T10:52:12.888Z,37.71
2023-04-07T10:54:42.942Z,38.42
2023-04-07T10:57:13.148Z,38.18
2023-04-07T11:00:19.927Z,37.81
2023-04-07T11:02:48.813Z,37.79
2023-04-07T11:05:22.481Z,37.97
2023-04-07T11:07:52.395Z,37.98
2023-04-07T11:10:23.395Z,37.55
2023-04-07T11:12:59.660Z,37.08
2023-04-07T11:15:27.682Z,37.18
2023-04-07T11:18:18.151Z,35.69
2023-04-07T11:20:55.144Z,35.21
2023-04-07T11:23:25.272Z,35.32
2023-04-07T11:26:03.249Z,35.25
2023-04-07T11:28:31.455Z,35.43
2023-04-07T11:31:01.639Z,35.05
2023-04-07T11:33:31.450Z,35.08
2023-04-07T11:36:00.618Z,34.73
2023-04-07T11:38:29.923Z,34.88
2023-04-07T11:40:57.921Z,34.46
2023-04-07T11:43:27.748Z,34.49
2023-04-07T11:46:15.749Z,35.42
2023-04-07T11:48:47.499Z,35.50
2023-04-07T11:51:24.609Z,34.71
2023-04-07T11:53:56.805Z,34.47
2023-04-07T11:56:24.885Z,36.08
2023-04-07T11:58:54.060Z,36.67
2023-04-07T12:01:24.416Z,37.16
2023-04-07T12:03:59.917Z,37.13
2023-04-07T12:06:35.049Z,37.92
2023-04-07T12:09:03.986Z,37.42
2023-04-07T12:11:33.011Z,38.05
2023-04-07T12:14:05.241Z,38.41
2023-04-07T12:16:38.365Z,37.51
2023-04-07T12:19:06.287Z,37.89
2023-04-07T12:21:35.893Z,36.78
2023-04-07T12:24:04.071Z,37.25
2023-04-07T12:26:32.227Z,37.07
2023-04-07T12:29:05.147Z,37.74
2023-04-07T12:31:34.479Z,37.89
2023-04-07T12:34:02.672Z,38.21
2023-04-07T12:36:31.011Z,38.12
2023-04-07T12:38:59.153Z,36.97
2023-04-07T12:41:27.691Z,36.70
2023-04-07T12:43:55.963Z,36.99
2023-04-07T12:46:26.875Z,37.51
2023-04-07T12:48:54.954Z,37.69
2023-04-07T12:51:22.999Z,37.19
2023-04-07T12:53:51.338Z,37.25
2023-04-07T12:56:19.995Z,37.14
2023-04-07T12:58:48.405Z,37.17
2023-04-07T13:01:16.919Z,36.57
2023-04-07T13:03:46.455Z,35.42
2023-04-07T13:06:18.570Z,35.69
2023-04-07T13:08:46.640Z,35.45
2023-04-07T13:11:14.628Z,34.82
2023-04-07T13:13:43.075Z,33.22
2023-04-07T13:16:11.356Z,33.75
2023-04-07T13:18:39.327Z,33.49
2023-04-07T13:21:42.633Z,33.65
2023-04-07T13:23:58.511Z,34.61
2023-04-07T13:26:26.685Z,35.11
2023-04-07T13:28:54.727Z,36.16
2023-04-07T13:31:23.790Z,35.77
2023-04-07T13:33:53.040Z,36.14
2023-04-07T13:36:23.297Z,37.19
2023-04-07T13:38:51.396Z,37.32
2023-04-07T13:41:19.297Z,37.14
2023-04-07T13:43:47.727Z,36.48
2023-04-07T13:46:28.078Z,36.38
2023-04-07T13:48:57.046Z,36.79
2023-04-07T13:51:25.279Z,36.73
2023-04-07T13:53:53.279Z,36.33
2023-04-07T13:56:22.260Z,36.42
2023-04-07T13:58:50.586Z,36.85
2023-04-07T14:01:18.735Z,37.14
2023-04-07T14:03:48.163Z,37.48
2023-04-07T14:06:16.462Z,37.87
2023-04-07T14:08:44.489Z,38.22
2023-04-07T14:11:12.703Z,37.35
2023-04-07T14:13:41.311Z,37.67
2023-04-07T14:16:09.452Z,37.08
2023-04-07T14:18:37.506Z,35.85
2023-04-07T14:21:09.740Z,35.45
2023-04-07T14:23:38.338Z,36.62
2023-04-07T14:26:09.920Z,36.92
2023-04-07T14:28:37.874Z,37.69
2023-04-07T14:31:06.737Z,37.89
2023-04-07T14:33:34.752Z,38.36
2023-04-07T14:36:02.930Z,36.41
2023-04-07T14:38:32.334Z,36.71
2023-04-07T14:43:34.052Z,39.85
2023-04-07T14:46:07.344Z,39.72
2023-04-07T14:48:35.531Z,39.14
2023-04-07T14:51:09.630Z,38.60
2023-04-07T14:53:45.625Z,39.01
2023-04-07T14:56:14.121Z,38.69
2023-04-07T14:58:46.337Z,37.44
2023-04-07T15:01:14.774Z,37.41
2023-04-07T15:03:44.312Z,37.39
2023-04-07T15:06:13.551Z,37.83
2023-04-07T15:08:43.917Z,37.65
2023-04-07T15:11:12.893Z,37.37
2023-04-07T15:13:40.857Z,36.64
2023-04-07T15:16:13.411Z,37.09
2023-04-07T15:18:44.459Z,37.31
2023-04-07T15:21:12.557Z,35.94
2023-04-07T15:23:41.992Z,36.27
2023-04-07T15:26:10.473Z,36.80
2023-04-07T15:28:42.228Z,36.81
2023-04-07T15:31:11.176Z,36.17
2023-04-07T15:33:40.388Z,36.20
2023-04-07T15:36:08.719Z,35.49
2023-04-07T15:38:40.319Z,35.18
2023-04-07T15:41:08.390Z,34.67
2023-04-07T15:43:37.538Z,34.95
2023-04-07T15:46:05.624Z,35.08
2023-04-07T15:48:33.785Z,35.40
2023-04-07T15:51:02.913Z,35.04
2023-04-07T15:53:31.039Z,35.39
2023-04-07T15:55:59.125Z,36.34
2023-04-07T15:58:27.215Z,35.99
2023-04-07T16:00:55.445Z,36.30
2023-04-07T16:03:28.163Z,37.58
2023-04-07T16:05:57.063Z,37.53
2023-04-07T16:08:25.336Z,37.01
2023-04-07T16:10:53.230Z,36.91
2023-04-07T16:22:46.474Z,37.75
2023-04-07T16:29:58.617Z,38.45
2023-04-07T16:50:59.622Z,41.05
2023-04-07T17:21:15.493Z,45.35
2023-04-07T17:51:26.372Z,46.29
2023-04-07T18:00:25.863Z,48.38
2023-04-07T18:03:14.247Z,48.02
2023-04-07T18:05:46.787Z,48.19
2023-04-07T18:08:15.081Z,48.38
2023-04-07T18:10:43.491Z,48.44
2023-04-07T18:13:12.758Z,48.59
2023-04-07T18:15:40.829Z,48.73
2023-04-07T18:18:10.311Z,48.86
2023-04-07T18:20:38.747Z,49.00
2023-04-07T18:23:06.781Z,49.28
2023-04-07T18:25:35.124Z,49.44
2023-04-07T18:28:04.061Z,49.64
2023-04-07T18:30:35.010Z,49.94
2023-04-07T18:33:03.517Z,49.97
2023-04-07T18:35:32.091Z,50.14
2023-04-07T18:38:01.128Z,50.32
2023-04-07T18:40:32.821Z,50.64
2023-04-07T18:43:01.158Z,50.90
2023-04-07T18:45:29.331Z,51.08
2023-04-07T18:47:57.811Z,51.30
2023-04-07T18:50:26.016Z,51.53
2023-04-07T18:52:54.133Z,51.52
2023-04-07T18:55:22.251Z,51.45
2023-04-07T18:57:50.498Z,51.48
2023-04-07T19:00:26.798Z,51.63
2023-04-07T19:02:56.667Z,51.57
2023-04-07T19:05:25.823Z,51.56
2023-04-07T19:07:55.050Z,52.13
2023-04-07T19:10:24.156Z,52.32
2023-04-07T19:12:52.198Z,52.10
2023-04-07T19:15:20.849Z,52.47
2023-04-07T19:17:48.963Z,52.80
2023-04-07T19:20:18.177Z,52.28
2023-04-07T19:22:47.418Z,52.13
2023-04-07T19:25:15.667Z,52.43
2023-04-07T19:27:44.049Z,52.86
2023-04-07T19:30:12.345Z,52.80
2023-04-07T19:32:41.191Z,53.33
2023-04-07T19:35:11.874Z,53.43
2023-04-07T19:37:42.631Z,53.55
2023-04-07T19:40:10.894Z,53.60
2023-04-07T19:42:40.092Z,53.26
2023-04-07T19:45:08.576Z,53.45
2023-04-07T19:47:39.133Z,53.50
2023-04-07T19:50:08.640Z,53.58
2023-04-07T19:52:38.828Z,53.85
2023-04-07T19:55:10.587Z,54.04
2023-04-07T19:57:40.408Z,53.95
2023-04-07T20:00:10.047Z,53.91
2023-04-07T20:03:08.792Z,53.62
2023-04-07T20:05:37.241Z,53.68
2023-04-07T20:08:06.156Z,53.70
2023-04-07T20:10:34.376Z,53.86
2023-04-07T20:13:06.389Z,54.16
2023-04-07T20:15:36.729Z,54.39
2023-04-07T20:18:04.682Z,54.55
2023-04-07T20:20:33.495Z,54.80
2023-04-07T20:23:02.105Z,54.86
2023-04-07T20:25:30.349Z,54.75
2023-04-07T20:28:01.945Z,54.69
2023-04-07T20:30:30.606Z,54.75
2023-04-07T20:32:59.824Z,54.75
2023-04-07T20:35:28.240Z,54.86
2023-04-07T20:37:56.881Z,54.95
2023-04-07T20:40:30.755Z,55.14
2023-04-07T20:42:59.467Z,55.43
2023-04-07T20:45:27.685Z,55.36
2023-04-07T20:47:57.571Z,55.28
2023-04-07T20:50:25.980Z,55.47
2023-04-07T20:52:58.161Z,55.82
2023-04-07T20:55:27.278Z,56.17
2023-04-07T20:57:55.699Z,56.24
2023-04-07T21:00:24.105Z,56.19
2023-04-07T21:02:52.695Z,56.19
2023-04-07T21:05:21.146Z,55.97
2023-04-07T21:07:49.261Z,56.02
2023-04-07T21:10:18.079Z,56.10
2023-04-07T21:12:46.434Z,56.08
2023-04-07T21:15:17.963Z,56.30
2023-04-07T21:17:46.245Z,56.31
2023-04-07T21:20:14.298Z,56.46
2023-04-07T21:22:43.082Z,56.59
2023-04-07T21:25:11.108Z,56.51
2023-04-07T21:27:39.183Z,56.75
2023-04-07T21:30:08.381Z,56.95
2023-04-07T21:32:37.076Z,56.91
2023-04-07T21:35:06.967Z,57.26
2023-04-07T21:37:35.284Z,57.37
2023-04-07T21:40:04.217Z,57.47
2023-04-07T21:42:33.540Z,57.44
2023-04-07T21:45:01.520Z,57.43
2023-04-07T21:47:30.122Z,57.58
2023-04-07T21:49:59.668Z,57.64
2023-04-07T21:52:27.738Z,57.78
2023-04-07T21:54:56.399Z,57.84
2023-04-07T21:57:32.878Z,58.01
2023-04-07T22:00:01.036Z,58.01
2023-04-07T22:02:30.125Z,58.06
2023-04-07T22:04:58.735Z,58.03
2023-04-07T22:07:27.330Z,58.25
2023-04-07T22:09:55.824Z,58.40
2023-04-07T22:12:29.886Z,58.38
2023-04-07T22:14:57.775Z,58.55
2023-04-07T22:17:26.140Z,58.83
2023-04-07T22:19:58.182Z,58.81
2023-04-07T22:22:26.460Z,58.86
2023-04-07T22:24:54.392Z,59.04
2023-04-07T22:27:22.566Z,59.05
2023-04-07T22:29:50.540Z,59.16
2023-04-07T22:32:18.625Z,59.27
2023-04-07T22:34:46.955Z,59.36
2023-04-07T22:37:14.872Z,59.11
2023-04-07T22:39:46.392Z,58.96
2023-04-07T22:42:14.830Z,59.18
2023-04-07T22:44:46.321Z,59.36
2023-04-07T22:47:14.540Z,59.22
2023-04-07T22:49:42.478Z,58.82
2023-04-07T22:52:10.597Z,58.78
2023-04-07T22:54:39.387Z,58.71
2023-04-07T22:57:11.063Z,58.61
2023-04-07T22:59:38.999Z,58.80
2023-04-07T23:02:12.934Z,58.87
2023-04-07T23:04:41.307Z,59.07
2023-04-07T23:07:09.451Z,59.27
2023-04-07T23:09:38.000Z,59.08
2023-04-07T23:12:08.807Z,59.21
2023-04-07T23:14:36.785Z,59.18
2023-04-07T23:17:05.696Z,59.25
2023-04-07T23:19:34.063Z,59.70
2023-04-07T23:22:02.009Z,59.90
2023-04-07T23:24:30.437Z,59.67
2023-04-07T23:26:58.868Z,59.87
2023-04-07T23:29:27.635Z,59.90
2023-04-07T23:31:56.739Z,60.11
2023-04-07T23:34:24.771Z,60.28
2023-04-07T23:36:53.047Z,60.32
2023-04-07T23:39:21.049Z,60.19
2023-04-07T23:41:49.100Z,60.40
2023-04-07T23:44:17.974Z,60.48
2023-04-07T23:46:46.175Z,60.39
2023-04-07T23:49:14.341Z,60.39
2023-04-07T23:51:43.831Z,60.40
2023-04-07T23:54:23.826Z,60.68
2023-04-07T23:56:52.541Z,60.96
2023-04-07T23:59:21.010Z,61.10
